Time;durP1;ratioP1;P1;durP2;ratioP2;P2;SDS_P1;SDS_P2;PMS_P1;PMS_P2;Temp;Humidity;BMP_temperature;BMP_pressure;BME280_temperature;BME280_humidity;BME280_pressure;Samples;Min_cycle;Max_cycle;Signal;HPM_P1;HPM_P2
2021/01/02 00:00:19;;;;;;;30.55;13.00;;;2.70;99.90;;;;;;5013092;28;20206;-57
2021/01/02 00:03:00;;;;;;;47.70;21.02;;;2.70;99.90;;;;;;5012933;28;20026;-57
2021/01/02 00:05:37;;;;;;;98.43;42.28;;;2.80;99.90;;;;;;5012819;28;20026;-57
2021/01/02 00:08:13;;;;;;;39.88;16.90;;;2.70;99.90;;;;;;5012111;28;20053;-56
2021/01/02 00:11:02;;;;;;;34.35;15.02;;;2.70;99.90;;;;;;5012835;28;20041;-57
2021/01/02 00:14:00;;;;;;;36.72;15.30;;;2.70;99.90;;;;;;5012036;28;20044;-57
2021/01/02 00:17:06;;;;;;;35.60;16.45;;;2.60;99.90;;;;;;5012928;28;20036;-57
2021/01/02 00:20:14;;;;;;;33.67;14.63;;;2.60;99.90;;;;;;5012942;28;20038;-57
2021/01/02 00:22:57;;;;;;;35.70;14.20;;;2.60;99.90;;;;;;5012460;28;20046;-57
2021/01/02 00:25:30;;;;;;;32.83;13.80;;;2.70;99.90;;;;;;5012461;28;20041;-57
2021/01/02 00:28:21;;;;;;;34.15;13.98;;;2.70;99.90;;;;;;5012981;28;20062;-56
2021/01/02 00:31:02;;;;;;;32.00;13.60;;;2.70;99.90;;;;;;5012848;28;20049;-57
2021/01/02 00:33:52;;;;;;;33.83;13.83;;;2.60;99.90;;;;;;5012542;28;20042;-58
2021/01/02 00:36:32;;;;;;;35.42;14.10;;;2.60;99.90;;;;;;5011350;28;20026;-55
2021/01/02 00:38:58;;;;;;;30.50;12.50;;;2.50;99.90;;;;;;5012579;28;20129;-56
2021/01/02 00:41:27;;;;;;;30.65;13.18;;;2.60;99.90;;;;;;5011331;28;20381;-57
2021/01/02 00:43:54;;;;;;;29.15;14.18;;;2.60;99.90;;;;;;5012733;28;20026;-57
2021/01/02 00:46:20;;;;;;;32.50;13.55;;;2.50;99.90;;;;;;5012226;28;20030;-56
2021/01/02 00:48:47;;;;;;;31.98;14.57;;;2.50;99.90;;;;;;5012267;28;20026;-57
2021/01/02 00:51:16;;;;;;;31.27;13.02;;;2.50;99.90;;;;;;5011456;28;20031;-57
2021/01/02 00:54:17;;;;;;;32.75;13.93;;;2.50;99.90;;;;;;5010973;28;20092;-57
2021/01/02 00:57:03;;;;;;;32.55;13.13;;;2.50;99.90;;;;;;5011404;28;20030;-57
2021/01/02 01:00:07;;;;;;;32.58;13.27;;;2.50;99.90;;;;;;5012043;28;20042;-57
2021/01/02 01:02:57;;;;;;;31.92;13.68;;;2.50;99.90;;;;;;5012071;28;20119;-57
2021/01/02 01:05:24;;;;;;;29.02;13.32;;;2.50;99.90;;;;;;5012234;28;20026;-56
2021/01/02 01:07:55;;;;;;;30.17;13.43;;;2.40;99.90;;;;;;5012443;28;20034;-57
2021/01/02 01:10:26;;;;;;;30.33;13.80;;;2.50;99.90;;;;;;5012539;28;20037;-57
2021/01/02 01:13:23;;;;;;;27.70;12.63;;;2.40;99.90;;;;;;5012268;28;20092;-57
2021/01/02 01:15:50;;;;;;;28.65;13.75;;;2.40;99.90;;;;;;5012257;28;20049;-57
2021/01/02 01:18:48;;;;;;;28.55;12.40;;;2.40;99.90;;;;;;5012184;28;20092;-58
2021/01/02 01:21:16;;;;;;;28.27;12.40;;;2.50;99.90;;;;;;5010700;28;20050;-54
2021/01/02 01:24:12;;;;;;;28.23;12.75;;;2.40;99.90;;;;;;5011944;28;20043;-57
2021/01/02 01:27:02;;;;;;;30.23;12.60;;;2.40;99.90;;;;;;5007422;28;20060;-57
2021/01/02 01:29:57;;;;;;;29.80;12.40;;;2.50;99.90;;;;;;5011946;28;20042;-57
2021/01/02 01:32:25;;;;;;;32.58;14.23;;;2.50;99.90;;;;;;5011009;28;20061;-56
2021/01/02 01:35:05;;;;;;;32.50;13.85;;;2.40;99.90;;;;;;5011987;28;20037;-57
2021/01/02 01:37:33;;;;;;;31.15;12.38;;;2.50;99.90;;;;;;5012151;28;20030;-57
2021/01/02 01:40:00;;;;;;;32.35;13.07;;;2.50;99.90;;;;;;5012297;28;20061;-55
2021/01/02 01:42:49;;;;;;;31.55;14.00;;;2.50;99.90;;;;;;5011873;28;20026;-56
2021/01/02 01:45:21;;;;;;;30.05;13.68;;;2.50;99.90;;;;;;5014002;28;20072;-57
2021/01/02 01:48:08;;;;;;;31.25;13.27;;;2.40;99.90;;;;;;5015567;28;20042;-57
2021/01/02 01:51:27;;;;;;;31.83;12.95;;;2.50;99.90;;;;;;5015457;28;20032;-57
2021/01/02 01:54:38;;;;;;;30.63;13.05;;;2.50;99.90;;;;;;5011060;28;20045;-56
2021/01/02 01:57:05;;;;;;;27.58;12.93;;;2.40;99.90;;;;;;5015130;28;20088;-57
2021/01/02 01:59:56;;;;;;;32.42;13.45;;;2.40;99.90;;;;;;5015620;28;20038;-57
2021/01/02 02:02:46;;;;;;;29.13;12.30;;;2.40;99.90;;;;;;5015294;28;20065;-54
2021/01/02 02:05:20;;;;;;;30.67;13.68;;;2.30;99.90;;;;;;5015711;28;20034;-56
2021/01/02 02:08:05;;;;;;;28.35;13.35;;;2.40;99.90;;;;;;5015455;28;20052;-57
2021/01/02 02:10:46;;;;;;;28.77;12.95;;;2.30;99.90;;;;;;5015355;28;20040;-57
2021/01/02 02:13:14;;;;;;;32.95;13.10;;;2.30;99.90;;;;;;5015437;28;20037;-57
2021/01/02 02:15:53;;;;;;;30.88;14.30;;;2.30;99.90;;;;;;5015055;28;20109;-57
2021/01/02 02:18:27;;;;;;;32.53;13.75;;;2.30;99.90;;;;;;5015446;28;20034;-57
2021/01/02 02:20:56;;;;;;;32.38;14.10;;;2.30;99.90;;;;;;5014928;28;20080;-57
2021/01/02 02:23:35;;;;;;;26.55;12.93;;;2.30;99.90;;;;;;5015279;28;20049;-57
2021/01/02 02:26:32;;;;;;;31.00;12.90;;;2.20;99.90;;;;;;5014915;28;20077;-56
2021/01/02 02:29:13;;;;;;;32.35;14.55;;;2.20;99.90;;;;;;5015209;28;20041;-57
2021/01/02 02:31:46;;;;;;;31.40;12.87;;;2.10;99.90;;;;;;5014760;28;20124;-55
2021/01/02 02:34:13;;;;;;;30.88;13.73;;;2.10;99.90;;;;;;5015199;28;20316;-57
2021/01/02 02:36:41;;;;;;;32.42;15.27;;;2.20;99.90;;;;;;5014928;28;20041;-57
2021/01/02 02:39:11;;;;;;;33.70;13.38;;;2.10;99.90;;;;;;5014777;28;20045;-57
2021/01/02 02:41:51;;;;;;;34.55;13.75;;;2.10;99.90;;;;;;5014455;28;20118;-57
2021/01/02 02:44:25;;;;;;;29.88;13.88;;;2.20;99.90;;;;;;5014591;28;20040;-57
2021/01/02 02:46:57;;;;;;;28.60;13.13;;;2.30;99.90;;;;;;5014832;28;20034;-54
2021/01/02 02:49:25;;;;;;;33.55;13.73;;;2.30;99.90;;;;;;5014835;28;20030;-56
2021/01/02 02:52:22;;;;;;;34.35;13.85;;;2.30;99.90;;;;;;5014576;28;20046;-57
2021/01/02 02:54:49;;;;;;;31.10;13.15;;;2.50;99.90;;;;;;5014545;28;20034;-57
2021/01/02 02:57:17;;;;;;;27.90;12.88;;;2.40;99.90;;;;;;5014256;28;20056;-56
2021/01/02 02:59:43;;;;;;;26.25;13.50;;;2.40;99.90;;;;;;5014574;28;20026;-58
2021/01/02 03:02:10;;;;;;;31.38;14.43;;;2.30;99.90;;;;;;5014479;28;20117;-57
2021/01/02 03:04:36;;;;;;;28.48;13.32;;;2.30;99.90;;;;;;5014413;28;20033;-57
2021/01/02 03:07:07;;;;;;;29.02;13.20;;;2.30;99.90;;;;;;5014534;28;20033;-57
2021/01/02 03:09:34;;;;;;;27.70;12.40;;;2.30;99.90;;;;;;5014402;28;20057;-58
2021/01/02 03:12:01;;;;;;;27.80;12.82;;;2.30;99.90;;;;;;5014096;28;20037;-55
2021/01/02 03:14:27;;;;;;;32.78;13.77;;;2.30;99.90;;;;;;5014355;28;20104;-57
2021/01/02 03:17:00;;;;;;;32.15;12.95;;;2.40;99.90;;;;;;5013887;28;20041;-55
2021/01/02 03:19:32;;;;;;;28.38;13.55;;;2.30;99.90;;;;;;5014238;28;20026;-57
2021/01/02 03:21:59;;;;;;;29.63;12.90;;;2.30;99.90;;;;;;5013408;28;20184;-56
2021/01/02 03:24:26;;;;;;;30.85;13.77;;;2.40;99.90;;;;;;5014001;28;20030;-56
2021/01/02 03:26:52;;;;;;;32.33;14.65;;;2.50;99.90;;;;;;5013730;28;20038;-56
2021/01/02 03:29:18;;;;;;;26.92;12.45;;;2.30;99.90;;;;;;5014019;28;20048;-57
2021/01/02 03:31:44;;;;;;;30.33;12.95;;;2.30;99.90;;;;;;5013954;28;20026;-55
2021/01/02 03:34:10;;;;;;;32.72;13.80;;;2.30;99.90;;;;;;5014036;28;20030;-57
2021/01/02 03:36:36;;;;;;;32.17;14.27;;;2.30;99.90;;;;;;5013934;28;20041;-55
2021/01/02 03:39:02;;;;;;;35.47;15.32;;;2.20;99.90;;;;;;5013586;28;20116;-57
2021/01/02 03:41:29;;;;;;;31.10;13.95;;;2.20;99.90;;;;;;5012535;28;20037;-57
2021/01/02 03:43:55;;;;;;;33.92;14.10;;;2.20;99.90;;;;;;5013407;28;20033;-57
2021/01/02 03:46:27;;;;;;;36.70;15.48;;;2.20;99.90;;;;;;5013644;28;20142;-55
2021/01/02 03:48:53;;;;;;;33.78;15.20;;;2.20;99.90;;;;;;5013246;28;20038;-57
2021/01/02 03:51:26;;;;;;;33.67;13.98;;;2.30;99.90;;;;;;5013670;28;20033;-55
2021/01/02 03:53:52;;;;;;;32.78;13.13;;;2.30;99.90;;;;;;5013496;28;20026;-57
2021/01/02 03:56:19;;;;;;;33.38;13.73;;;2.30;99.90;;;;;;5013464;28;20033;-57
2021/01/02 03:58:45;;;;;;;38.17;15.70;;;2.30;99.90;;;;;;5013151;28;20092;-57
2021/01/02 04:01:13;;;;;;;38.58;14.77;;;2.30;99.90;;;;;;5013482;28;20034;-56
2021/01/02 04:03:40;;;;;;;35.20;14.98;;;2.30;99.90;;;;;;5013262;28;20030;-57
2021/01/02 04:06:07;;;;;;;33.75;15.00;;;2.30;99.90;;;;;;5013199;28;20053;-57
2021/01/02 04:08:33;;;;;;;34.38;14.25;;;2.30;99.90;;;;;;5011567;28;20030;-57
2021/01/02 04:10:59;;;;;;;32.75;13.80;;;2.30;99.90;;;;;;5013186;28;20033;-57
2021/01/02 04:13:24;;;;;;;31.27;13.55;;;2.30;99.90;;;;;;5012954;28;20117;-57
2021/01/02 04:15:51;;;;;;;34.60;14.13;;;2.30;99.90;;;;;;5012736;28;20030;-57
2021/01/02 04:18:17;;;;;;;34.95;13.95;;;2.30;99.90;;;;;;5013146;28;20036;-56
2021/01/02 04:20:45;;;;;;;31.17;14.13;;;2.40;99.90;;;;;;5011283;28;20089;-55
2021/01/02 04:23:11;;;;;;;33.40;14.30;;;2.30;99.90;;;;;;5013136;28;20037;-57
2021/01/02 04:25:40;;;;;;;32.70;13.85;;;2.30;99.90;;;;;;5012856;28;20393;-56
2021/01/02 04:28:13;;;;;;;33.22;14.50;;;2.50;99.90;;;;;;5012803;28;20104;-54
2021/01/02 04:30:39;;;;;;;41.85;15.48;;;2.40;99.90;;;;;;5012588;28;20037;-57
2021/01/02 04:33:05;;;;;;;39.53;15.77;;;2.40;99.90;;;;;;5012758;28;20030;-57
2021/01/02 04:35:31;;;;;;;35.47;15.20;;;2.30;99.90;;;;;;5012877;28;20033;-56
2021/01/02 04:37:59;;;;;;;42.03;15.02;;;2.30;99.90;;;;;;5012571;28;20146;-57
2021/01/02 04:40:25;;;;;;;34.97;14.93;;;2.40;99.90;;;;;;5012513;28;20037;-55
2021/01/02 04:42:51;;;;;;;32.88;14.07;;;2.40;99.90;;;;;;5012665;28;20088;-54
2021/01/02 04:45:17;;;;;;;40.63;14.98;;;2.50;99.90;;;;;;5012421;28;20040;-57
2021/01/02 04:47:45;;;;;;;32.83;15.80;;;2.40;99.90;;;;;;5012262;28;20030;-55
2021/01/02 04:50:12;;;;;;;36.50;15.68;;;2.30;99.90;;;;;;5011502;28;20101;-57
2021/01/02 04:52:40;;;;;;;34.03;15.18;;;2.20;99.90;;;;;;5012708;28;20076;-55
2021/01/02 04:55:08;;;;;;;28.80;13.18;;;2.30;99.90;;;;;;5011618;28;20030;-54
2021/01/02 04:57:38;;;;;;;38.05;14.40;;;2.30;99.90;;;;;;5012564;28;20034;-55
2021/01/02 05:00:08;;;;;;;38.08;15.07;;;2.30;99.90;;;;;;5012244;28;20037;-52
2021/01/02 05:02:38;;;;;;;35.83;14.55;;;2.40;99.90;;;;;;5012509;28;20034;-54
2021/01/02 05:05:06;;;;;;;37.67;13.75;;;2.40;99.90;;;;;;5012168;28;20033;-56
2021/01/02 05:07:33;;;;;;;39.35;14.35;;;2.30;99.90;;;;;;5012240;28;20062;-58
2021/01/02 05:09:59;;;;;;;34.17;14.73;;;2.30;99.90;;;;;;5012113;28;20041;-58
2021/01/02 05:12:35;;;;;;;34.28;14.10;;;2.30;99.90;;;;;;5012556;28;20038;-58
2021/01/02 05:15:12;;;;;;;32.20;13.77;;;2.20;99.90;;;;;;5012015;28;20030;-57
2021/01/02 05:17:40;;;;;;;33.88;15.18;;;2.10;99.90;;;;;;5012201;28;20057;-57
2021/01/02 05:20:15;;;;;;;28.90;13.27;;;2.20;99.90;;;;;;5014966;28;20026;-57
2021/01/02 05:22:42;;;;;;;30.30;12.80;;;2.30;99.90;;;;;;5016162;28;20074;-56
2021/01/02 05:25:18;;;;;;;32.33;14.50;;;2.30;99.90;;;;;;5016085;28;20030;-57
2021/01/02 05:27:52;;;;;;;31.67;13.80;;;2.30;99.90;;;;;;5015942;28;20049;-56
2021/01/02 05:30:25;;;;;;;31.70;14.15;;;2.20;99.90;;;;;;5016341;28;20065;-56
2021/01/02 05:33:08;;;;;;;30.25;13.05;;;2.30;99.90;;;;;;5016221;28;20062;-57
2021/01/02 05:35:43;;;;;;;31.67;13.77;;;2.30;99.90;;;;;;5015952;28;20042;-55
2021/01/02 05:38:22;;;;;;;30.55;12.88;;;2.30;99.90;;;;;;5016101;28;20030;-56
2021/01/02 05:40:52;;;;;;;34.58;13.70;;;2.30;99.90;;;;;;5015679;28;20045;-57
2021/01/02 05:43:23;;;;;;;28.23;13.13;;;2.10;99.90;;;;;;5015680;28;20041;-55
2021/01/02 05:45:50;;;;;;;30.60;12.67;;;2.20;99.90;;;;;;5015801;28;20030;-57
2021/01/02 05:48:29;;;;;;;30.38;12.57;;;2.20;99.90;;;;;;5015636;28;20037;-57
2021/01/02 05:51:00;;;;;;;27.42;13.80;;;2.30;99.90;;;;;;5015801;28;20025;-57
2021/01/02 05:53:35;;;;;;;29.25;12.52;;;2.30;99.90;;;;;;5015939;28;20030;-57
2021/01/02 05:56:13;;;;;;;30.48;13.68;;;2.20;99.90;;;;;;5015646;28;20034;-56
2021/01/02 05:58:44;;;;;;;31.27;12.05;;;2.10;99.90;;;;;;5015512;28;20030;-57
2021/01/02 06:01:18;;;;;;;28.15;13.52;;;2.20;99.90;;;;;;5015477;28;20038;-57
2021/01/02 06:03:49;;;;;;;28.25;12.35;;;2.30;99.90;;;;;;5015767;28;20037;-57
2021/01/02 06:06:18;;;;;;;29.55;13.30;;;2.30;99.90;;;;;;5015606;28;20034;-53
2021/01/02 06:08:45;;;;;;;29.30;12.98;;;2.30;99.90;;;;;;5015315;28;20084;-57
2021/01/02 06:11:20;;;;;;;28.27;13.75;;;2.20;99.90;;;;;;5015535;28;20072;-57
2021/01/02 06:13:52;;;;;;;26.20;12.50;;;2.20;99.90;;;;;;5015147;28;20045;-54
2021/01/02 06:16:19;;;;;;;25.80;12.27;;;2.20;99.90;;;;;;5015269;28;20062;-55
2021/01/02 06:18:47;;;;;;;28.75;13.38;;;2.20;99.90;;;;;;5015066;28;20034;-57
2021/01/02 06:21:16;;;;;;;29.17;12.05;;;2.20;99.90;;;;;;5014543;28;20047;-55
2021/01/02 06:23:44;;;;;;;28.48;12.35;;;2.20;99.90;;;;;;5013801;28;20109;-58
2021/01/02 06:26:12;;;;;;;27.85;12.00;;;2.20;99.90;;;;;;5013847;28;20041;-57
2021/01/02 06:28:42;;;;;;;27.52;11.88;;;2.20;99.90;;;;;;5013958;28;20026;-54
2021/01/02 06:31:12;;;;;;;25.58;11.82;;;2.20;99.90;;;;;;5013198;28;20089;-57
2021/01/02 06:33:46;;;;;;;28.30;12.93;;;2.20;99.90;;;;;;5013544;28;20041;-57
2021/01/02 06:36:33;;;;;;;29.23;12.75;;;2.20;99.90;;;;;;5013493;28;20030;-56
2021/01/02 06:39:24;;;;;;;31.08;12.82;;;1.90;99.90;;;;;;5013725;28;20062;-55
2021/01/02 06:41:53;;;;;;;28.98;11.73;;;1.90;99.90;;;;;;5013578;28;20048;-57
2021/01/02 06:44:47;;;;;;;34.90;13.73;;;2.00;99.90;;;;;;5013725;28;20033;-57
2021/01/02 06:47:19;;;;;;;31.67;13.13;;;2.20;99.90;;;;;;5013351;28;20045;-57
2021/01/02 06:49:46;;;;;;;28.38;12.23;;;2.10;99.90;;;;;;5013288;28;20058;-53
2021/01/02 06:52:35;;;;;;;28.85;12.07;;;2.10;99.90;;;;;;5007848;28;20026;-56
2021/01/02 06:55:26;;;;;;;27.15;12.50;;;2.20;99.90;;;;;;4991294;28;20069;-57
2021/01/02 06:58:12;;;;;;;29.00;12.13;;;2.30;99.90;;;;;;4992200;28;20031;-57
2021/01/02 07:00:39;;;;;;;24.45;11.30;;;2.30;99.90;;;;;;4992430;28;20173;-58
2021/01/02 07:03:45;;;;;;;29.83;12.40;;;2.20;99.90;;;;;;4993446;28;20030;-58
2021/01/02 07:06:26;;;;;;;30.95;12.52;;;2.30;99.90;;;;;;4993669;28;20091;-58
2021/01/02 07:09:17;;;;;;;25.17;11.93;;;2.20;99.90;;;;;;4992529;28;20039;-57
2021/01/02 07:11:49;;;;;;;28.17;11.53;;;2.30;99.90;;;;;;4993714;28;20296;-59
2021/01/02 07:14:24;;;;;;;25.35;11.95;;;2.30;99.90;;;;;;4993439;28;20109;-59
2021/01/02 07:17:05;;;;;;;30.30;12.85;;;2.20;99.90;;;;;;4993420;28;20045;-59
2021/01/02 07:19:41;;;;;;;33.37;12.97;;;2.30;99.90;;;;;;4993415;28;20113;-58
2021/01/02 07:22:16;;;;;;;28.77;12.38;;;2.30;99.90;;;;;;4964899;28;831108;-58
2021/01/02 07:24:46;;;;;;;26.48;11.77;;;2.20;99.90;;;;;;4994509;28;20050;-58
2021/01/02 07:27:30;;;;;;;27.95;12.57;;;2.20;99.90;;;;;;4994181;28;20041;-57
2021/01/02 07:30:20;;;;;;;32.65;12.10;;;2.20;99.90;;;;;;4993876;28;20125;-51
2021/01/02 07:32:46;;;;;;;25.20;11.63;;;2.40;99.90;;;;;;4994324;28;20121;-53
2021/01/02 07:35:16;;;;;;;31.17;12.70;;;2.40;99.90;;;;;;4993805;28;20062;-55
2021/01/02 07:37:45;;;;;;;26.42;12.38;;;2.30;99.90;;;;;;4994293;28;20038;-58
2021/01/02 07:40:19;;;;;;;29.48;12.82;;;2.40;99.90;;;;;;4993999;28;20066;-54
2021/01/02 07:42:51;;;;;;;28.92;13.38;;;2.40;99.90;;;;;;4991970;28;20030;-58
2021/01/02 07:45:23;;;;;;;28.05;12.68;;;2.40;99.90;;;;;;4994000;28;20022;-58
2021/01/02 07:47:56;;;;;;;28.95;12.73;;;2.40;99.90;;;;;;4994067;28;20026;-52
2021/01/02 07:50:26;;;;;;;29.27;11.52;;;2.30;99.90;;;;;;4993640;28;20030;-56
2021/01/02 07:53:00;;;;;;;28.30;11.75;;;2.20;99.90;;;;;;4993797;28;20099;-59
2021/01/02 07:55:32;;;;;;;25.38;12.32;;;2.30;99.90;;;;;;4993882;28;20030;-57
2021/01/02 07:57:59;;;;;;;32.22;12.65;;;2.30;99.90;;;;;;4993765;28;20050;-57
2021/01/02 08:00:25;;;;;;;28.63;12.48;;;2.30;99.90;;;;;;4993769;28;20023;-58
2021/01/02 08:02:52;;;;;;;27.83;12.52;;;2.30;99.90;;;;;;4993442;28;20040;-58
2021/01/02 08:05:21;;;;;;;30.60;13.85;;;2.40;99.90;;;;;;4993339;28;20042;-58
2021/01/02 08:08:01;;;;;;;30.77;11.88;;;2.30;99.90;;;;;;4993511;28;20166;-58
2021/01/02 08:10:30;;;;;;;32.93;13.13;;;2.30;99.90;;;;;;4993413;28;20038;-58
2021/01/02 08:13:00;;;;;;;28.73;12.45;;;2.40;99.90;;;;;;4993399;28;20300;-58
2021/01/02 08:15:35;;;;;;;26.77;11.40;;;2.50;99.90;;;;;;4993196;28;20030;-58
2021/01/02 08:18:09;;;;;;;27.27;12.60;;;2.40;99.90;;;;;;4992943;28;20041;-57
2021/01/02 08:20:39;;;;;;;29.02;12.25;;;2.50;99.90;;;;;;4992769;28;20088;-58
2021/01/02 08:23:09;;;;;;;33.33;12.80;;;2.40;99.90;;;;;;4993047;28;20080;-54
2021/01/02 08:25:36;;;;;;;27.02;13.25;;;2.50;99.90;;;;;;4993313;28;20031;-57
2021/01/02 08:28:02;;;;;;;26.27;11.80;;;2.50;99.90;;;;;;4992043;28;20031;-56
2021/01/02 08:30:29;;;;;;;28.42;12.77;;;2.60;99.90;;;;;;4991881;28;20038;-58
2021/01/02 08:32:59;;;;;;;28.65;12.90;;;2.60;99.90;;;;;;4991894;28;20137;-56
2021/01/02 08:35:40;;;;;;;31.55;12.30;;;2.70;99.90;;;;;;4992762;28;20065;-57
2021/01/02 08:38:08;;;;;;;26.92;11.95;;;2.60;99.90;;;;;;4993040;28;20037;-57
2021/01/02 08:40:44;;;;;;;25.92;11.52;;;2.60;99.90;;;;;;4992737;28;20092;-58
2021/01/02 08:43:46;;;;;;;21.83;9.98;;;2.60;99.90;;;;;;4992804;28;20065;-57
2021/01/02 08:46:12;;;;;;;22.73;10.27;;;2.70;99.90;;;;;;4984960;28;20141;-55
2021/01/02 08:48:47;;;;;;;27.33;11.35;;;2.50;99.90;;;;;;4993041;28;20092;-57
2021/01/02 08:51:27;;;;;;;25.67;11.70;;;2.50;99.90;;;;;;4992854;28;20034;-57
2021/01/02 08:53:53;;;;;;;26.73;11.98;;;2.60;99.90;;;;;;4992835;28;20034;-57
2021/01/02 08:56:26;;;;;;;23.10;11.63;;;2.70;99.90;;;;;;4992530;28;20113;-58
2021/01/02 08:58:54;;;;;;;24.35;11.43;;;2.70;99.90;;;;;;4992918;28;20037;-58
2021/01/02 09:01:20;;;;;;;23.83;10.63;;;2.70;99.90;;;;;;4992774;28;20026;-57
2021/01/02 09:03:46;;;;;;;34.22;14.70;;;2.70;99.90;;;;;;4992893;28;20026;-57
2021/01/02 09:06:21;;;;;;;22.13;10.98;;;2.80;99.90;;;;;;4992491;28;20034;-57
2021/01/02 09:09:07;;;;;;;23.75;10.63;;;2.80;99.90;;;;;;4992981;28;20022;-58
2021/01/02 09:11:50;;;;;;;19.00;9.00;;;2.90;99.90;;;;;;4992554;28;20026;-56
2021/01/02 09:14:18;;;;;;;26.15;10.30;;;3.10;99.90;;;;;;4992569;28;20038;-55
2021/01/02 09:17:03;;;;;;;24.00;10.18;;;2.90;99.90;;;;;;4992601;28;20105;-56
2021/01/02 09:19:30;;;;;;;20.20;9.75;;;3.00;99.90;;;;;;4991647;28;20034;-54
2021/01/02 09:21:58;;;;;;;27.98;11.57;;;3.10;99.90;;;;;;4992153;28;20049;-56
2021/01/02 09:24:24;;;;;;;20.65;9.63;;;3.10;99.90;;;;;;4992737;28;20041;-56
2021/01/02 09:26:50;;;;;;;26.40;10.48;;;3.20;99.90;;;;;;5001633;28;20030;-53
2021/01/02 09:29:18;;;;;;;21.88;10.00;;;3.20;99.90;;;;;;5012205;28;20037;-58
2021/01/02 09:31:44;;;;;;;23.67;10.75;;;3.20;99.90;;;;;;5012258;28;20066;-56
2021/01/02 09:34:12;;;;;;;25.23;10.57;;;3.20;99.90;;;;;;5011732;28;20022;-57
2021/01/02 09:36:38;;;;;;;19.30;9.30;;;3.20;99.90;;;;;;5011634;28;20040;-57
2021/01/02 09:39:06;;;;;;;21.38;9.57;;;3.20;99.90;;;;;;5011750;28;20029;-55
2021/01/02 09:41:32;;;;;;;21.02;8.52;;;3.30;99.90;;;;;;5012065;28;20120;-57
2021/01/02 09:43:59;;;;;;;22.30;9.63;;;3.40;99.90;;;;;;5011823;28;20041;-58
2021/01/02 09:46:29;;;;;;;20.85;9.23;;;3.50;99.90;;;;;;5011814;28;20112;-58
2021/01/02 09:48:57;;;;;;;31.37;13.63;;;3.40;99.90;;;;;;5011960;28;20026;-57
2021/01/02 09:51:27;;;;;;;23.50;11.32;;;3.20;99.90;;;;;;4996066;28;20034;-58
2021/01/02 09:53:53;;;;;;;25.25;11.68;;;3.30;99.90;;;;;;4992496;28;20035;-58
2021/01/02 09:56:19;;;;;;;27.10;11.82;;;3.40;99.90;;;;;;4992313;28;20092;-57
2021/01/02 09:58:45;;;;;;;24.50;10.52;;;3.30;99.90;;;;;;4992457;28;20031;-58
2021/01/02 10:01:15;;;;;;;20.58;9.45;;;3.40;99.90;;;;;;4991984;28;20045;-52
2021/01/02 10:03:41;;;;;;;27.30;12.75;;;3.50;99.90;;;;;;4992767;28;20035;-48
2021/01/02 10:06:07;;;;;;;51.55;21.77;;;3.60;99.90;;;;;;4995030;28;20034;-51
2021/01/02 10:08:33;;;;;;;26.00;11.75;;;3.70;99.90;;;;;;4995846;28;20041;-52
2021/01/02 10:11:01;;;;;;;44.30;19.42;;;3.50;99.90;;;;;;4995872;28;20069;-56
2021/01/02 10:13:27;;;;;;;30.70;13.60;;;3.60;99.90;;;;;;5010690;28;20037;-57
2021/01/02 10:15:53;;;;;;;24.08;10.48;;;3.70;99.90;;;;;;4995663;28;20026;-61
2021/01/02 10:18:19;;;;;;;24.02;9.23;;;3.80;99.90;;;;;;4995544;28;20053;-63
2021/01/02 10:20:45;;;;;;;19.88;10.18;;;3.90;99.90;;;;;;4995194;28;20105;-60
2021/01/02 10:23:11;;;;;;;22.00;9.73;;;3.90;99.90;;;;;;4995455;28;20117;-56
2021/01/02 10:25:36;;;;;;;22.02;10.20;;;3.90;99.90;;;;;;4995475;28;20046;-64
2021/01/02 10:28:03;;;;;;;22.05;10.00;;;3.80;99.90;;;;;;4995152;28;20031;-58
2021/01/02 10:30:29;;;;;;;24.08;11.10;;;3.80;99.90;;;;;;4995509;28;20122;-60
2021/01/02 10:32:54;;;;;;;19.15;9.13;;;3.80;99.90;;;;;;4995471;28;20057;-60
2021/01/02 10:35:21;;;;;;;21.55;8.63;;;3.90;99.90;;;;;;4995222;28;20443;-59
2021/01/02 10:37:48;;;;;;;22.20;9.70;;;3.90;99.90;;;;;;5010430;28;20023;-59
2021/01/02 10:40:17;;;;;;;22.05;10.05;;;3.70;99.90;;;;;;4994979;28;20026;-58
2021/01/02 10:42:44;;;;;;;23.50;10.00;;;3.70;99.90;;;;;;4994798;28;20038;-59
2021/01/02 10:45:14;;;;;;;19.38;8.88;;;3.80;99.90;;;;;;4994652;28;20037;-60
2021/01/02 10:47:40;;;;;;;16.57;7.73;;;4.00;99.90;;;;;;4995189;28;20117;-60
2021/01/02 10:50:08;;;;;;;18.67;8.75;;;3.90;99.90;;;;;;4994488;28;20113;-60
2021/01/02 10:52:34;;;;;;;21.95;8.35;;;3.80;99.90;;;;;;4994844;28;20077;-60
2021/01/02 10:54:59;;;;;;;24.60;9.40;;;3.90;99.90;;;;;;4995003;28;20437;-60
2021/01/02 10:57:27;;;;;;;19.10;9.20;;;4.10;99.90;;;;;;4994815;28;20058;-59
2021/01/02 10:59:55;;;;;;;19.02;8.52;;;4.20;99.90;;;;;;4994970;28;20034;-60
2021/01/02 11:02:22;;;;;;;16.25;8.00;;;4.20;99.90;;;;;;4994784;28;20034;-60
2021/01/02 11:04:49;;;;;;;17.45;8.93;;;4.40;99.90;;;;;;4994597;28;20103;-60
2021/01/02 11:07:15;;;;;;;16.83;8.85;;;4.30;99.90;;;;;;4993201;28;20074;-60
2021/01/02 11:09:44;;;;;;;16.45;8.10;;;4.30;99.90;;;;;;4994751;28;20030;-60
2021/01/02 11:12:13;;;;;;;22.35;8.07;;;4.50;99.90;;;;;;4994564;28;20038;-60
2021/01/02 11:14:39;;;;;;;16.55;7.90;;;4.50;99.90;;;;;;4994614;28;20042;-60
2021/01/02 11:17:06;;;;;;;15.18;7.38;;;4.60;99.90;;;;;;4993158;28;20155;-60
2021/01/02 11:19:33;;;;;;;16.33;7.88;;;4.60;99.90;;;;;;4994503;28;20026;-60
2021/01/02 11:22:01;;;;;;;17.73;8.27;;;4.40;99.90;;;;;;4993962;28;20076;-61
2021/01/02 11:24:31;;;;;;;14.32;7.60;;;4.40;99.90;;;;;;5003330;28;20075;-61
2021/01/02 11:27:00;;;;;;;16.48;7.57;;;4.50;99.90;;;;;;5013615;28;20030;-60
2021/01/02 11:29:30;;;;;;;15.55;6.97;;;4.50;99.90;;;;;;5013424;28;20044;-60
2021/01/02 11:31:58;;;;;;;20.95;9.00;;;4.80;99.90;;;;;;5013839;28;20034;-60
2021/01/02 11:34:25;;;;;;;15.48;6.53;;;4.90;99.90;;;;;;5013723;28;20040;-60
2021/01/02 11:36:59;;;;;;;15.05;6.68;;;4.90;99.90;;;;;;5013686;28;20034;-60
2021/01/02 11:39:26;;;;;;;13.23;6.00;;;4.70;99.90;;;;;;5013283;28;20026;-60
2021/01/02 11:41:53;;;;;;;11.25;4.88;;;4.80;99.90;;;;;;5013273;28;20044;-60
2021/01/02 11:44:23;;;;;;;11.95;5.22;;;4.80;99.90;;;;;;5013095;28;20044;-61
2021/01/02 11:46:52;;;;;;;10.43;5.05;;;4.80;99.90;;;;;;5013240;28;20383;-61
2021/01/02 11:49:23;;;;;;;12.27;5.35;;;4.80;99.90;;;;;;5013297;28;20026;-61
2021/01/02 11:51:55;;;;;;;10.20;4.68;;;4.80;99.90;;;;;;4989456;28;20027;-61
2021/01/02 11:54:22;;;;;;;6.22;3.25;;;4.80;99.90;;;;;;4973990;28;20035;-61
2021/01/02 11:56:49;;;;;;;6.40;3.20;;;4.90;99.90;;;;;;4974139;28;20031;-61
2021/01/02 11:59:16;;;;;;;6.88;3.05;;;5.00;99.90;;;;;;4974119;28;20022;-60
2021/01/02 12:01:52;;;;;;;7.93;3.40;;;5.10;99.90;;;;;;4973891;28;20035;-60
2021/01/02 12:04:23;;;;;;;6.43;2.80;;;5.10;99.90;;;;;;4974140;28;20030;-60
2021/01/02 12:06:50;;;;;;;6.20;2.60;;;5.20;99.90;;;;;;4974145;28;20042;-60
2021/01/02 12:09:19;;;;;;;11.50;3.13;;;4.90;99.90;;;;;;4974117;28;20290;-60
2021/01/02 12:11:47;;;;;;;6.05;2.88;;;5.20;99.90;;;;;;4973852;28;20042;-60
2021/01/02 12:14:18;;;;;;;8.48;3.53;;;5.30;99.90;;;;;;4974028;28;20034;-60
2021/01/02 12:16:48;;;;;;;10.77;3.17;;;5.50;99.90;;;;;;4973840;28;20051;-60
2021/01/02 12:19:19;;;;;;;8.27;3.72;;;5.50;99.90;;;;;;4973508;28;20034;-60
2021/01/02 12:21:45;;;;;;;7.85;3.38;;;5.50;99.90;;;;;;4991591;28;20050;-60
2021/01/02 12:24:12;;;;;;;7.35;3.33;;;5.60;99.90;;;;;;4992763;28;20030;-60
2021/01/02 12:26:52;;;;;;;10.85;3.78;;;5.60;99.90;;;;;;4991659;28;20037;-61
2021/01/02 12:29:22;;;;;;;8.77;3.42;;;5.70;99.90;;;;;;4992569;28;20030;-61
2021/01/02 12:31:52;;;;;;;6.18;3.00;;;5.70;99.90;;;;;;4992596;28;20037;-60
2021/01/02 12:34:24;;;;;;;8.77;4.47;;;5.60;99.90;;;;;;4991879;28;20065;-61
2021/01/02 12:36:50;;;;;;;7.25;3.88;;;5.40;99.90;;;;;;4992112;28;20034;-61
2021/01/02 12:39:26;;;;;;;7.15;3.75;;;5.50;99.90;;;;;;4992775;28;20057;-61
2021/01/02 12:41:52;;;;;;;9.20;4.47;;;5.50;99.90;;;;;;4992718;28;20034;-60
2021/01/02 12:44:21;;;;;;;9.57;4.57;;;5.40;99.90;;;;;;4992470;28;20027;-60
2021/01/02 12:46:52;;;;;;;9.55;4.85;;;5.60;99.90;;;;;;4992816;28;20034;-60
2021/01/02 12:49:22;;;;;;;9.73;3.85;;;5.60;99.90;;;;;;4993024;28;20026;-60
2021/01/02 12:51:52;;;;;;;10.25;5.22;;;5.50;99.90;;;;;;5011856;28;20092;-61
2021/01/02 12:54:18;;;;;;;9.60;5.15;;;5.50;99.90;;;;;;5012725;28;20030;-61
2021/01/02 12:56:46;;;;;;;11.77;5.10;;;5.30;99.90;;;;;;5012654;28;20044;-61
2021/01/02 12:59:20;;;;;;;12.50;5.60;;;5.30;99.90;;;;;;5012423;28;20034;-61
2021/01/02 13:01:47;;;;;;;10.38;4.55;;;5.40;99.90;;;;;;5011426;28;20037;-60
2021/01/02 13:04:12;;;;;;;11.25;4.60;;;5.30;99.90;;;;;;5012489;28;20054;-60
2021/01/02 13:06:38;;;;;;;9.43;4.65;;;5.20;99.90;;;;;;5012442;28;20092;-60